sensor_id;sensor_type;location;lat;lon;timestamp;temperature;humidity
6146;DHT22;3104;50.348;7.620;2022-07-24T00:01:56;19.50;99.90
6146;DHT22;3104;50.348;7.620;2022-07-24T00:04:22;19.50;99.90
6146;DHT22;3104;50.348;7.620;2022-07-24T00:06:48;19.40;99.90
6146;DHT22;3104;50.348;7.620;2022-07-24T00:09:13;19.40;99.90
6146;DHT22;3104;50.348;7.620;2022-07-24T00:11:39;19.60;99.90
6146;DHT22;3104;50.348;7.620;2022-07-24T00:14:04;19.60;99.90
6146;DHT22;3104;50.348;7.620;2022-07-24T00:16:30;19.60;99.90
6146;DHT22;3104;50.348;7.620;2022-07-24T00:18:56;19.50;99.90
6146;DHT22;3104;50.348;7.620;2022-07-24T00:21:21;19.40;99.90
6146;DHT22;3104;50.348;7.620;2022-07-24T00:23:47;19.30;99.90
6146;DHT22;3104;50.348;7.620;2022-07-24T00:26:13;19.30;99.90
6146;DHT22;3104;50.348;7.620;2022-07-24T00:28:39;19.40;99.90
6146;DHT22;3104;50.348;7.620;2022-07-24T00:31:04;19.30;99.90
6146;DHT22;3104;50.348;7.620;2022-07-24T00:33:30;19.20;99.90
6146;DHT22;3104;50.348;7.620;2022-07-24T00:35:56;19.20;99.90
6146;DHT22;3104;50.348;7.620;2022-07-24T00:38:21;19.20;99.90
6146;DHT22;3104;50.348;7.620;2022-07-24T00:40:47;19.20;99.90
6146;DHT22;3104;50.348;7.620;2022-07-24T00:43:13;19.00;99.90
6146;DHT22;3104;50.348;7.620;2022-07-24T00:45:39;18.90;99.90
6146;DHT22;3104;50.348;7.620;2022-07-24T00:48:05;19.10;99.90
6146;DHT22;3104;50.348;7.620;2022-07-24T00:50:31;19.00;99.90
6146;DHT22;3104;50.348;7.620;2022-07-24T00:52:57;19.00;99.90
6146;DHT22;3104;50.348;7.620;2022-07-24T00:55:23;18.90;99.90
6146;DHT22;3104;50.348;7.620;2022-07-24T00:57:49;18.80;99.90
6146;DHT22;3104;50.348;7.620;2022-07-24T01:00:17;18.90;99.90
6146;DHT22;3104;50.348;7.620;2022-07-24T01:02:43;18.80;99.90
6146;DHT22;3104;50.348;7.620;2022-07-24T01:05:10;18.70;99.90
6146;DHT22;3104;50.348;7.620;2022-07-24T01:07:37;18.70;99.90
6146;DHT22;3104;50.348;7.620;2022-07-24T01:10:04;18.70;99.90
6146;DHT22;3104;50.348;7.620;2022-07-24T01:12:31;18.70;99.90
6146;DHT22;3104;50.348;7.620;2022-07-24T01:14:57;18.60;99.90
6146;DHT22;3104;50.348;7.620;2022-07-24T01:17:24;18.70;99.90
6146;DHT22;3104;50.348;7.620;2022-07-24T01:19:54;18.60;99.90
6146;DHT22;3104;50.348;7.620;2022-07-24T01:22:19;18.60;99.90
6146;DHT22;3104;50.348;7.620;2022-07-24T01:24:45;18.50;99.90
6146;DHT22;3104;50.348;7.620;2022-07-24T01:27:10;18.40;99.90
6146;DHT22;3104;50.348;7.620;2022-07-24T01:29:36;18.40;99.90
6146;DHT22;3104;50.348;7.620;2022-07-24T01:32:02;18.40;99.90
6146;DHT22;3104;50.348;7.620;2022-07-24T01:34:27;18.40;99.90
6146;DHT22;3104;50.348;7.620;2022-07-24T01:36:53;18.50;99.90
6146;DHT22;3104;50.348;7.620;2022-07-24T01:39:18;18.50;99.90
6146;DHT22;3104;50.348;7.620;2022-07-24T01:41:44;18.50;99.90
6146;DHT22;3104;50.348;7.620;2022-07-24T01:44:10;18.40;99.90
6146;DHT22;3104;50.348;7.620;2022-07-24T01:46:35;18.40;99.90
6146;DHT22;3104;50.348;7.620;2022-07-24T01:49:01;18.30;99.90
6146;DHT22;3104;50.348;7.620;2022-07-24T01:51:27;18.30;99.90
6146;DHT22;3104;50.348;7.620;2022-07-24T01:53:52;18.20;99.90
6146;DHT22;3104;50.348;7.620;2022-07-24T01:56:18;18.10;99.90
6146;DHT22;3104;50.348;7.620;2022-07-24T01:58:43;18.00;99.90
6146;DHT22;3104;50.348;7.620;2022-07-24T02:01:09;18.10;99.90
6146;DHT22;3104;50.348;7.620;2022-07-24T02:03:35;18.10;99.90
6146;DHT22;3104;50.348;7.620;2022-07-24T02:06:00;18.00;99.90
6146;DHT22;3104;50.348;7.620;2022-07-24T02:08:26;18.00;99.90
6146;DHT22;3104;50.348;7.620;2022-07-24T02:10:52;17.80;99.90
6146;DHT22;3104;50.348;7.620;2022-07-24T02:13:18;17.90;99.90
6146;DHT22;3104;50.348;7.620;2022-07-24T02:15:44;17.90;99.90
6146;DHT22;3104;50.348;7.620;2022-07-24T02:18:09;17.90;99.90
6146;DHT22;3104;50.348;7.620;2022-07-24T02:20:35;17.80;99.90
6146;DHT22;3104;50.348;7.620;2022-07-24T02:23:01;17.80;99.90
6146;DHT22;3104;50.348;7.620;2022-07-24T02:25:26;17.80;99.90
6146;DHT22;3104;50.348;7.620;2022-07-24T02:27:52;17.80;99.90
6146;DHT22;3104;50.348;7.620;2022-07-24T02:30:22;17.80;99.90
6146;DHT22;3104;50.348;7.620;2022-07-24T02:32:48;17.70;99.90
6146;DHT22;3104;50.348;7.620;2022-07-24T02:35:13;17.60;99.90
6146;DHT22;3104;50.348;7.620;2022-07-24T02:37:42;17.50;99.90
6146;DHT22;3104;50.348;7.620;2022-07-24T02:40:09;17.40;99.90
6146;DHT22;3104;50.348;7.620;2022-07-24T02:42:35;17.50;99.90
6146;DHT22;3104;50.348;7.620;2022-07-24T02:45:01;17.50;99.90
6146;DHT22;3104;50.348;7.620;2022-07-24T02:47:27;17.60;99.90
6146;DHT22;3104;50.348;7.620;2022-07-24T02:49:53;17.50;99.90
6146;DHT22;3104;50.348;7.620;2022-07-24T02:52:18;17.40;99.90
6146;DHT22;3104;50.348;7.620;2022-07-24T02:54:44;17.40;99.90
6146;DHT22;3104;50.348;7.620;2022-07-24T02:57:09;17.40;99.90
6146;DHT22;3104;50.348;7.620;2022-07-24T02:59:35;17.50;99.90
6146;DHT22;3104;50.348;7.620;2022-07-24T03:02:00;17.50;99.90
6146;DHT22;3104;50.348;7.620;2022-07-24T03:04:26;17.50;99.90
6146;DHT22;3104;50.348;7.620;2022-07-24T03:06:52;17.40;99.90
6146;DHT22;3104;50.348;7.620;2022-07-24T03:09:17;17.40;99.90
6146;DHT22;3104;50.348;7.620;2022-07-24T03:11:43;17.30;99.90
6146;DHT22;3104;50.348;7.620;2022-07-24T03:14:09;17.30;99.90
6146;DHT22;3104;50.348;7.620;2022-07-24T03:16:34;17.30;99.90
6146;DHT22;3104;50.348;7.620;2022-07-24T03:19:00;17.30;99.90
6146;DHT22;3104;50.348;7.620;2022-07-24T03:21:25;17.30;99.90
6146;DHT22;3104;50.348;7.620;2022-07-24T03:23:51;17.30;99.90
6146;DHT22;3104;50.348;7.620;2022-07-24T03:26:17;17.30;99.90
6146;DHT22;3104;50.348;7.620;2022-07-24T03:28:42;17.30;99.90
6146;DHT22;3104;50.348;7.620;2022-07-24T03:31:08;17.20;99.90
6146;DHT22;3104;50.348;7.620;2022-07-24T03:33:34;17.20;99.90
6146;DHT22;3104;50.348;7.620;2022-07-24T03:35:59;17.40;99.90
6146;DHT22;3104;50.348;7.620;2022-07-24T03:38:25;17.40;99.90
6146;DHT22;3104;50.348;7.620;2022-07-24T03:40:51;17.30;99.90
6146;DHT22;3104;50.348;7.620;2022-07-24T03:43:16;17.30;99.90
6146;DHT22;3104;50.348;7.620;2022-07-24T03:45:42;17.40;99.90
6146;DHT22;3104;50.348;7.620;2022-07-24T03:48:08;17.30;99.90
6146;DHT22;3104;50.348;7.620;2022-07-24T03:50:34;17.30;99.90
6146;DHT22;3104;50.348;7.620;2022-07-24T03:53:00;17.20;99.90
6146;DHT22;3104;50.348;7.620;2022-07-24T03:55:26;17.10;99.90
6146;DHT22;3104;50.348;7.620;2022-07-24T03:57:51;17.00;99.90
6146;DHT22;3104;50.348;7.620;2022-07-24T04:00:17;17.00;99.90
6146;DHT22;3104;50.348;7.620;2022-07-24T04:02:43;17.00;99.90
6146;DHT22;3104;50.348;7.620;2022-07-24T04:05:08;17.10;99.90
6146;DHT22;3104;50.348;7.620;2022-07-24T04:07:35;17.10;99.90
6146;DHT22;3104;50.348;7.620;2022-07-24T04:10:01;17.10;99.90
6146;DHT22;3104;50.348;7.620;2022-07-24T04:12:27;17.10;99.90
6146;DHT22;3104;50.348;7.620;2022-07-24T04:14:52;17.10;99.90
6146;DHT22;3104;50.348;7.620;2022-07-24T04:17:18;17.10;99.90
6146;DHT22;3104;50.348;7.620;2022-07-24T04:19:43;17.10;99.90
6146;DHT22;3104;50.348;7.620;2022-07-24T04:22:09;17.10;99.90
6146;DHT22;3104;50.348;7.620;2022-07-24T04:24:35;17.10;99.90
6146;DHT22;3104;50.348;7.620;2022-07-24T04:27:00;17.20;99.90
6146;DHT22;3104;50.348;7.620;2022-07-24T04:29:26;17.30;99.90
6146;DHT22;3104;50.348;7.620;2022-07-24T04:31:51;17.40;99.90
6146;DHT22;3104;50.348;7.620;2022-07-24T04:34:17;17.40;99.90
6146;DHT22;3104;50.348;7.620;2022-07-24T04:36:43;17.30;99.90
6146;DHT22;3104;50.348;7.620;2022-07-24T04:39:08;17.30;99.90
6146;DHT22;3104;50.348;7.620;2022-07-24T04:41:34;17.30;99.90
6146;DHT22;3104;50.348;7.620;2022-07-24T04:43:59;17.40;99.90
6146;DHT22;3104;50.348;7.620;2022-07-24T04:46:25;17.40;99.90
6146;DHT22;3104;50.348;7.620;2022-07-24T04:48:51;17.60;99.90
6146;DHT22;3104;50.348;7.620;2022-07-24T04:51:16;17.70;99.90
6146;DHT22;3104;50.348;7.620;2022-07-24T04:53:46;17.70;99.90
6146;DHT22;3104;50.348;7.620;2022-07-24T04:56:12;17.80;99.90
6146;DHT22;3104;50.348;7.620;2022-07-24T04:58:38;17.80;99.90
6146;DHT22;3104;50.348;7.620;2022-07-24T05:01:03;17.90;99.90
6146;DHT22;3104;50.348;7.620;2022-07-24T05:03:29;17.90;99.90
6146;DHT22;3104;50.348;7.620;2022-07-24T05:05:55;17.80;99.90
6146;DHT22;3104;50.348;7.620;2022-07-24T05:08:20;17.90;99.90
6146;DHT22;3104;50.348;7.620;2022-07-24T05:10:47;17.80;99.90
6146;DHT22;3104;50.348;7.620;2022-07-24T05:13:12;17.80;99.90
6146;DHT22;3104;50.348;7.620;2022-07-24T05:15:38;17.80;99.90
6146;DHT22;3104;50.348;7.620;2022-07-24T05:18:03;18.00;99.90
6146;DHT22;3104;50.348;7.620;2022-07-24T05:20:29;18.00;99.90
6146;DHT22;3104;50.348;7.620;2022-07-24T05:22:55;18.10;99.90
6146;DHT22;3104;50.348;7.620;2022-07-24T05:25:20;18.20;99.90
6146;DHT22;3104;50.348;7.620;2022-07-24T05:27:46;18.20;99.90
6146;DHT22;3104;50.348;7.620;2022-07-24T05:30:12;18.40;99.90
6146;DHT22;3104;50.348;7.620;2022-07-24T05:32:38;18.50;99.90
6146;DHT22;3104;50.348;7.620;2022-07-24T05:35:04;18.50;99.90
6146;DHT22;3104;50.348;7.620;2022-07-24T05:37:30;18.50;99.90
6146;DHT22;3104;50.348;7.620;2022-07-24T05:39:55;18.50;99.90
6146;DHT22;3104;50.348;7.620;2022-07-24T05:42:21;18.60;99.90
6146;DHT22;3104;50.348;7.620;2022-07-24T05:44:47;18.60;99.90
6146;DHT22;3104;50.348;7.620;2022-07-24T05:47:12;18.60;99.90
6146;DHT22;3104;50.348;7.620;2022-07-24T05:49:38;18.70;99.90
6146;DHT22;3104;50.348;7.620;2022-07-24T05:52:04;18.70;99.90
6146;DHT22;3104;50.348;7.620;2022-07-24T05:54:29;18.70;99.90
6146;DHT22;3104;50.348;7.620;2022-07-24T05:56:55;18.80;99.90
6146;DHT22;3104;50.348;7.620;2022-07-24T05:59:21;18.90;99.90
6146;DHT22;3104;50.348;7.620;2022-07-24T06:01:46;19.00;99.90
6146;DHT22;3104;50.348;7.620;2022-07-24T06:04:12;19.00;99.90
6146;DHT22;3104;50.348;7.620;2022-07-24T06:06:38;19.00;99.90
6146;DHT22;3104;50.348;7.620;2022-07-24T06:09:04;18.90;99.90
6146;DHT22;3104;50.348;7.620;2022-07-24T06:11:30;19.00;99.90
6146;DHT22;3104;50.348;7.620;2022-07-24T06:13:55;19.10;99.90
6146;DHT22;3104;50.348;7.620;2022-07-24T06:16:21;19.00;99.90
6146;DHT22;3104;50.348;7.620;2022-07-24T06:18:47;18.90;99.90
6146;DHT22;3104;50.348;7.620;2022-07-24T06:21:12;19.00;99.90
6146;DHT22;3104;50.348;7.620;2022-07-24T06:23:38;19.00;99.90
6146;DHT22;3104;50.348;7.620;2022-07-24T06:26:03;19.00;99.90
6146;DHT22;3104;50.348;7.620;2022-07-24T06:28:29;19.10;99.90
6146;DHT22;3104;50.348;7.620;2022-07-24T06:30:55;19.10;99.90
6146;DHT22;3104;50.348;7.620;2022-07-24T06:33:20;19.20;99.90
6146;DHT22;3104;50.348;7.620;2022-07-24T06:35:46;19.30;99.90
6146;DHT22;3104;50.348;7.620;2022-07-24T06:38:12;19.30;99.90
6146;DHT22;3104;50.348;7.620;2022-07-24T06:40:38;19.40;99.90
6146;DHT22;3104;50.348;7.620;2022-07-24T06:43:04;19.50;99.90
6146;DHT22;3104;50.348;7.620;2022-07-24T06:45:30;19.70;99.90
6146;DHT22;3104;50.348;7.620;2022-07-24T06:48:01;19.70;99.90
6146;DHT22;3104;50.348;7.620;2022-07-24T06:50:27;19.70;99.90
6146;DHT22;3104;50.348;7.620;2022-07-24T06:52:53;19.70;99.90
6146;DHT22;3104;50.348;7.620;2022-07-24T06:55:19;19.70;99.90
6146;DHT22;3104;50.348;7.620;2022-07-24T06:57:45;19.80;99.90
6146;DHT22;3104;50.348;7.620;2022-07-24T07:00:11;19.90;99.90
6146;DHT22;3104;50.348;7.620;2022-07-24T07:02:37;19.70;99.90
6146;DHT22;3104;50.348;7.620;2022-07-24T07:05:07;19.70;99.90
6146;DHT22;3104;50.348;7.620;2022-07-24T07:07:38;19.90;99.90
6146;DHT22;3104;50.348;7.620;2022-07-24T07:10:05;19.90;99.90
6146;DHT22;3104;50.348;7.620;2022-07-24T07:12:31;20.00;99.90
6146;DHT22;3104;50.348;7.620;2022-07-24T07:14:57;20.10;99.90
6146;DHT22;3104;50.348;7.620;2022-07-24T07:17:25;20.40;99.90
6146;DHT22;3104;50.348;7.620;2022-07-24T07:19:50;20.50;99.90
6146;DHT22;3104;50.348;7.620;2022-07-24T07:22:16;20.50;99.90
6146;DHT22;3104;50.348;7.620;2022-07-24T07:24:42;20.50;99.90
6146;DHT22;3104;50.348;7.620;2022-07-24T07:27:07;20.60;99.90
6146;DHT22;3104;50.348;7.620;2022-07-24T07:29:33;20.70;99.90
6146;DHT22;3104;50.348;7.620;2022-07-24T07:31:59;20.80;99.90
6146;DHT22;3104;50.348;7.620;2022-07-24T07:34:24;20.90;99.90
6146;DHT22;3104;50.348;7.620;2022-07-24T07:36:50;21.10;99.90
6146;DHT22;3104;50.348;7.620;2022-07-24T07:39:16;21.00;99.90
6146;DHT22;3104;50.348;7.620;2022-07-24T07:41:41;21.10;99.90
6146;DHT22;3104;50.348;7.620;2022-07-24T07:44:07;21.20;99.90
6146;DHT22;3104;50.348;7.620;2022-07-24T07:46:32;21.30;99.90
6146;DHT22;3104;50.348;7.620;2022-07-24T07:48:58;21.30;99.90
6146;DHT22;3104;50.348;7.620;2022-07-24T07:51:24;21.40;99.90
6146;DHT22;3104;50.348;7.620;2022-07-24T07:53:49;21.50;99.90
6146;DHT22;3104;50.348;7.620;2022-07-24T07:56:15;21.60;99.90
6146;DHT22;3104;50.348;7.620;2022-07-24T07:58:41;21.80;99.90
6146;DHT22;3104;50.348;7.620;2022-07-24T08:01:06;22.00;99.90
6146;DHT22;3104;50.348;7.620;2022-07-24T08:03:32;22.10;99.90
6146;DHT22;3104;50.348;7.620;2022-07-24T08:05:59;22.20;99.90
6146;DHT22;3104;50.348;7.620;2022-07-24T08:08:25;22.40;99.90
6146;DHT22;3104;50.348;7.620;2022-07-24T08:10:50;22.70;99.90
6146;DHT22;3104;50.348;7.620;2022-07-24T08:13:16;23.00;99.90
6146;DHT22;3104;50.348;7.620;2022-07-24T08:15:43;23.00;99.90
6146;DHT22;3104;50.348;7.620;2022-07-24T08:18:09;22.70;99.90
6146;DHT22;3104;50.348;7.620;2022-07-24T08:20:35;23.30;99.90
6146;DHT22;3104;50.348;7.620;2022-07-24T08:23:01;24.00;99.90
6146;DHT22;3104;50.348;7.620;2022-07-24T08:25:27;24.30;99.90
6146;DHT22;3104;50.348;7.620;2022-07-24T08:27:52;24.60;99.90
6146;DHT22;3104;50.348;7.620;2022-07-24T08:30:18;24.90;99.90
6146;DHT22;3104;50.348;7.620;2022-07-24T08:32:45;25.40;99.90
6146;DHT22;3104;50.348;7.620;2022-07-24T08:35:11;25.80;99.90
6146;DHT22;3104;50.348;7.620;2022-07-24T08:37:41;26.30;99.90
6146;DHT22;3104;50.348;7.620;2022-07-24T08:40:09;26.10;99.90
6146;DHT22;3104;50.348;7.620;2022-07-24T08:42:35;26.50;99.90
6146;DHT22;3104;50.348;7.620;2022-07-24T08:45:05;27.40;99.90
6146;DHT22;3104;50.348;7.620;2022-07-24T08:47:31;27.60;99.90
6146;DHT22;3104;50.348;7.620;2022-07-24T08:50:00;27.90;99.90
6146;DHT22;3104;50.348;7.620;2022-07-24T08:52:29;28.30;99.90
6146;DHT22;3104;50.348;7.620;2022-07-24T08:54:55;29.20;99.30
6146;DHT22;3104;50.348;7.620;2022-07-24T08:57:21;29.70;98.30
6146;DHT22;3104;50.348;7.620;2022-07-24T08:59:47;29.40;98.70
6146;DHT22;3104;50.348;7.620;2022-07-24T09:02:12;29.10;98.40
6146;DHT22;3104;50.348;7.620;2022-07-24T09:04:39;29.50;95.60
6146;DHT22;3104;50.348;7.620;2022-07-24T09:07:11;29.80;95.00
6146;DHT22;3104;50.348;7.620;2022-07-24T09:09:38;29.70;95.30
6146;DHT22;3104;50.348;7.620;2022-07-24T09:14:37;29.60;96.00
6146;DHT22;3104;50.348;7.620;2022-07-24T09:19:29;30.20;93.80
6146;DHT22;3104;50.348;7.620;2022-07-24T09:21:55;30.10;91.20
6146;DHT22;3104;50.348;7.620;2022-07-24T09:24:21;30.20;92.30
6146;DHT22;3104;50.348;7.620;2022-07-24T09:26:49;29.60;93.30
6146;DHT22;3104;50.348;7.620;2022-07-24T09:29:15;29.70;93.40
6146;DHT22;3104;50.348;7.620;2022-07-24T09:31:59;29.20;93.20
6146;DHT22;3104;50.348;7.620;2022-07-24T09:34:26;30.50;93.00
6146;DHT22;3104;50.348;7.620;2022-07-24T09:37:03;31.20;91.90
6146;DHT22;3104;50.348;7.620;2022-07-24T09:39:30;30.40;92.60
6146;DHT22;3104;50.348;7.620;2022-07-24T09:41:58;30.50;91.40
6146;DHT22;3104;50.348;7.620;2022-07-24T09:44:24;31.00;91.10
6146;DHT22;3104;50.348;7.620;2022-07-24T09:47:11;31.20;90.20
6146;DHT22;3104;50.348;7.620;2022-07-24T09:49:38;30.00;90.60
6146;DHT22;3104;50.348;7.620;2022-07-24T09:52:15;30.10;90.90
6146;DHT22;3104;50.348;7.620;2022-07-24T09:54:46;30.10;91.50
6146;DHT22;3104;50.348;7.620;2022-07-24T09:59:53;30.50;91.50
6146;DHT22;3104;50.348;7.620;2022-07-24T10:02:26;31.20;89.50
6146;DHT22;3104;50.348;7.620;2022-07-24T10:04:53;31.20;90.00
6146;DHT22;3104;50.348;7.620;2022-07-24T10:07:20;30.50;90.70
6146;DHT22;3104;50.348;7.620;2022-07-24T10:09:49;30.90;90.60
6146;DHT22;3104;50.348;7.620;2022-07-24T10:12:23;31.20;89.90
6146;DHT22;3104;50.348;7.620;2022-07-24T10:14:51;31.20;87.90
6146;DHT22;3104;50.348;7.620;2022-07-24T10:17:17;31.20;89.00
6146;DHT22;3104;50.348;7.620;2022-07-24T10:19:45;31.30;88.30
6146;DHT22;3104;50.348;7.620;2022-07-24T10:22:22;31.40;89.50
6146;DHT22;3104;50.348;7.620;2022-07-24T10:27:31;32.30;86.90
6146;DHT22;3104;50.348;7.620;2022-07-24T10:30:00;31.70;85.80
6146;DHT22;3104;50.348;7.620;2022-07-24T10:32:27;31.20;87.40
6146;DHT22;3104;50.348;7.620;2022-07-24T10:37:43;31.30;86.70
6146;DHT22;3104;50.348;7.620;2022-07-24T10:40:23;31.20;85.70
6146;DHT22;3104;50.348;7.620;2022-07-24T10:45:37;31.50;87.00
6146;DHT22;3104;50.348;7.620;2022-07-24T10:53:43;31.50;86.70
6146;DHT22;3104;50.348;7.620;2022-07-24T10:56:26;32.00;85.60
6146;DHT22;3104;50.348;7.620;2022-07-24T10:59:04;32.00;84.70
6146;DHT22;3104;50.348;7.620;2022-07-24T11:04:25;31.90;83.70
6146;DHT22;3104;50.348;7.620;2022-07-24T11:06:53;32.50;84.20
6146;DHT22;3104;50.348;7.620;2022-07-24T11:09:24;33.20;82.70
6146;DHT22;3104;50.348;7.620;2022-07-24T11:14:23;32.70;81.30
6146;DHT22;3104;50.348;7.620;2022-07-24T11:16:49;32.90;82.80
6146;DHT22;3104;50.348;7.620;2022-07-24T11:21:42;31.60;81.60
6146;DHT22;3104;50.348;7.620;2022-07-24T11:29:38;33.20;81.30
6146;DHT22;3104;50.348;7.620;2022-07-24T11:32:22;32.70;79.00
6146;DHT22;3104;50.348;7.620;2022-07-24T11:34:51;33.00;80.10
6146;DHT22;3104;50.348;7.620;2022-07-24T11:37:17;33.00;79.30
6146;DHT22;3104;50.348;7.620;2022-07-24T11:39:45;33.20;80.00
6146;DHT22;3104;50.348;7.620;2022-07-24T11:42:15;33.60;78.20
6146;DHT22;3104;50.348;7.620;2022-07-24T11:44:46;34.10;75.60
6146;DHT22;3104;50.348;7.620;2022-07-24T11:50:19;34.50;72.90
6146;DHT22;3104;50.348;7.620;2022-07-24T11:52:41;34.20;73.10
6146;DHT22;3104;50.348;7.620;2022-07-24T11:55:11;34.20;74.00
6146;DHT22;3104;50.348;7.620;2022-07-24T11:57:40;34.20;73.10
6146;DHT22;3104;50.348;7.620;2022-07-24T12:00:11;33.30;72.60
6146;DHT22;3104;50.348;7.620;2022-07-24T12:02:46;32.80;73.50
6146;DHT22;3104;50.348;7.620;2022-07-24T12:05:12;33.10;74.20
6146;DHT22;3104;50.348;7.620;2022-07-24T12:07:38;32.90;74.00
6146;DHT22;3104;50.348;7.620;2022-07-24T12:10:04;32.70;73.40
6146;DHT22;3104;50.348;7.620;2022-07-24T12:12:32;33.20;74.90
6146;DHT22;3104;50.348;7.620;2022-07-24T12:15:13;33.90;72.90
6146;DHT22;3104;50.348;7.620;2022-07-24T12:22:54;34.40;70.00
6146;DHT22;3104;50.348;7.620;2022-07-24T12:25:20;33.60;71.00
6146;DHT22;3104;50.348;7.620;2022-07-24T12:27:47;32.90;70.30
6146;DHT22;3104;50.348;7.620;2022-07-24T12:30:27;33.30;71.20
6146;DHT22;3104;50.348;7.620;2022-07-24T12:32:59;33.50;70.50
6146;DHT22;3104;50.348;7.620;2022-07-24T12:35:28;33.70;69.60
6146;DHT22;3104;50.348;7.620;2022-07-24T12:37:55;33.80;68.10
6146;DHT22;3104;50.348;7.620;2022-07-24T12:40:36;34.30;67.40
6146;DHT22;3104;50.348;7.620;2022-07-24T12:43:03;34.20;66.90
6146;DHT22;3104;50.348;7.620;2022-07-24T12:45:29;33.80;67.80
6146;DHT22;3104;50.348;7.620;2022-07-24T12:48:05;34.20;67.80
6146;DHT22;3104;50.348;7.620;2022-07-24T12:50:31;34.20;67.40
6146;DHT22;3104;50.348;7.620;2022-07-24T12:53:07;34.40;68.50
6146;DHT22;3104;50.348;7.620;2022-07-24T12:55:33;34.70;65.10
6146;DHT22;3104;50.348;7.620;2022-07-24T12:58:00;34.40;65.30
6146;DHT22;3104;50.348;7.620;2022-07-24T13:00:26;34.10;66.50
6146;DHT22;3104;50.348;7.620;2022-07-24T13:02:52;34.50;65.00
6146;DHT22;3104;50.348;7.620;2022-07-24T13:05:39;34.70;64.10
6146;DHT22;3104;50.348;7.620;2022-07-24T13:08:06;33.50;63.90
6146;DHT22;3104;50.348;7.620;2022-07-24T13:10:31;33.30;65.00
6146;DHT22;3104;50.348;7.620;2022-07-24T13:12:57;33.50;65.50
6146;DHT22;3104;50.348;7.620;2022-07-24T13:15:23;34.20;65.50
6146;DHT22;3104;50.348;7.620;2022-07-24T13:17:48;34.20;63.30
6146;DHT22;3104;50.348;7.620;2022-07-24T13:20:14;34.70;63.60
6146;DHT22;3104;50.348;7.620;2022-07-24T13:22:39;34.70;64.40
6146;DHT22;3104;50.348;7.620;2022-07-24T13:25:05;34.70;63.40
6146;DHT22;3104;50.348;7.620;2022-07-24T13:27:31;34.40;63.20
6146;DHT22;3104;50.348;7.620;2022-07-24T13:29:57;34.40;63.40
6146;DHT22;3104;50.348;7.620;2022-07-24T13:32:23;34.60;64.00
6146;DHT22;3104;50.348;7.620;2022-07-24T13:34:48;34.80;60.80
6146;DHT22;3104;50.348;7.620;2022-07-24T13:37:14;35.10;60.70
6146;DHT22;3104;50.348;7.620;2022-07-24T13:39:40;35.10;59.60
6146;DHT22;3104;50.348;7.620;2022-07-24T13:42:08;35.10;60.10
6146;DHT22;3104;50.348;7.620;2022-07-24T13:44:34;35.40;60.30
6146;DHT22;3104;50.348;7.620;2022-07-24T13:46:59;34.90;59.70
6146;DHT22;3104;50.348;7.620;2022-07-24T13:49:25;35.30;60.00
6146;DHT22;3104;50.348;7.620;2022-07-24T13:51:51;35.40;58.80
6146;DHT22;3104;50.348;7.620;2022-07-24T13:54:16;35.10;58.30
6146;DHT22;3104;50.348;7.620;2022-07-24T13:56:42;34.30;59.30
6146;DHT22;3104;50.348;7.620;2022-07-24T13:59:09;33.90;60.50
6146;DHT22;3104;50.348;7.620;2022-07-24T14:01:35;34.70;58.10
6146;DHT22;3104;50.348;7.620;2022-07-24T14:04:04;35.10;60.70
6146;DHT22;3104;50.348;7.620;2022-07-24T14:06:34;35.20;58.50
6146;DHT22;3104;50.348;7.620;2022-07-24T14:09:01;34.90;58.70
6146;DHT22;3104;50.348;7.620;2022-07-24T14:11:27;34.90;59.70
6146;DHT22;3104;50.348;7.620;2022-07-24T14:13:52;35.30;60.00
6146;DHT22;3104;50.348;7.620;2022-07-24T14:16:18;35.30;57.00
6146;DHT22;3104;50.348;7.620;2022-07-24T14:18:43;35.30;56.60
6146;DHT22;3104;50.348;7.620;2022-07-24T14:21:09;35.00;54.80
6146;DHT22;3104;50.348;7.620;2022-07-24T14:23:35;35.10;55.00
6146;DHT22;3104;50.348;7.620;2022-07-24T14:26:00;35.40;55.10
6146;DHT22;3104;50.348;7.620;2022-07-24T14:28:26;34.90;54.70
6146;DHT22;3104;50.348;7.620;2022-07-24T14:30:52;34.60;54.40
6146;DHT22;3104;50.348;7.620;2022-07-24T14:33:17;33.50;53.60
6146;DHT22;3104;50.348;7.620;2022-07-24T14:35:43;34.10;54.40
6146;DHT22;3104;50.348;7.620;2022-07-24T14:38:09;34.70;54.30
6146;DHT22;3104;50.348;7.620;2022-07-24T14:40:34;34.60;54.10
6146;DHT22;3104;50.348;7.620;2022-07-24T14:43:00;34.80;54.80
6146;DHT22;3104;50.348;7.620;2022-07-24T14:45:26;35.20;54.30
6146;DHT22;3104;50.348;7.620;2022-07-24T14:47:52;34.90;54.00
6146;DHT22;3104;50.348;7.620;2022-07-24T14:50:18;34.50;52.00
6146;DHT22;3104;50.348;7.620;2022-07-24T14:52:44;33.80;53.90
6146;DHT22;3104;50.348;7.620;2022-07-24T14:55:10;34.20;53.70
6146;DHT22;3104;50.348;7.620;2022-07-24T14:57:35;34.60;55.50
6146;DHT22;3104;50.348;7.620;2022-07-24T15:00:03;35.20;54.10
6146;DHT22;3104;50.348;7.620;2022-07-24T15:02:28;35.70;55.70
6146;DHT22;3104;50.348;7.620;2022-07-24T15:04:54;35.80;52.50
6146;DHT22;3104;50.348;7.620;2022-07-24T15:07:19;35.80;52.80
6146;DHT22;3104;50.348;7.620;2022-07-24T15:09:45;35.50;52.20
6146;DHT22;3104;50.348;7.620;2022-07-24T15:12:11;35.80;53.10
6146;DHT22;3104;50.348;7.620;2022-07-24T15:14:36;35.40;51.10
6146;DHT22;3104;50.348;7.620;2022-07-24T15:17:02;34.80;50.20
6146;DHT22;3104;50.348;7.620;2022-07-24T15:19:28;35.10;50.20
6146;DHT22;3104;50.348;7.620;2022-07-24T15:21:53;35.50;50.50
6146;DHT22;3104;50.348;7.620;2022-07-24T15:24:19;35.70;51.60
6146;DHT22;3104;50.348;7.620;2022-07-24T15:26:45;35.80;52.00
6146;DHT22;3104;50.348;7.620;2022-07-24T15:29:11;35.50;51.20
6146;DHT22;3104;50.348;7.620;2022-07-24T15:31:36;35.00;51.00
6146;DHT22;3104;50.348;7.620;2022-07-24T15:34:02;34.50;50.80
6146;DHT22;3104;50.348;7.620;2022-07-24T15:36:28;34.80;52.50
6146;DHT22;3104;50.348;7.620;2022-07-24T15:38:53;35.10;53.00
6146;DHT22;3104;50.348;7.620;2022-07-24T15:41:19;35.20;52.50
6146;DHT22;3104;50.348;7.620;2022-07-24T15:43:45;35.60;52.20
6146;DHT22;3104;50.348;7.620;2022-07-24T15:46:11;35.70;51.30
6146;DHT22;3104;50.348;7.620;2022-07-24T15:48:36;35.80;51.40
6146;DHT22;3104;50.348;7.620;2022-07-24T15:51:02;35.70;51.20
6146;DHT22;3104;50.348;7.620;2022-07-24T15:53:28;35.60;51.90
6146;DHT22;3104;50.348;7.620;2022-07-24T15:55:53;35.70;51.50
6146;DHT22;3104;50.348;7.620;2022-07-24T15:58:19;35.60;51.60
6146;DHT22;3104;50.348;7.620;2022-07-24T16:00:45;35.70;49.90
6146;DHT22;3104;50.348;7.620;2022-07-24T16:03:10;35.10;50.20
6146;DHT22;3104;50.348;7.620;2022-07-24T16:05:36;35.30;50.50
6146;DHT22;3104;50.348;7.620;2022-07-24T16:08:02;35.10;50.10
6146;DHT22;3104;50.348;7.620;2022-07-24T16:10:27;35.30;50.60
6146;DHT22;3104;50.348;7.620;2022-07-24T16:12:53;35.40;51.50
6146;DHT22;3104;50.348;7.620;2022-07-24T16:15:19;35.70;53.10
6146;DHT22;3104;50.348;7.620;2022-07-24T16:17:45;35.70;50.90
6146;DHT22;3104;50.348;7.620;2022-07-24T16:20:12;35.40;48.90
6146;DHT22;3104;50.348;7.620;2022-07-24T16:22:38;35.00;49.10
6146;DHT22;3104;50.348;7.620;2022-07-24T16:25:04;34.90;49.40
6146;DHT22;3104;50.348;7.620;2022-07-24T16:27:30;34.80;50.10
6146;DHT22;3104;50.348;7.620;2022-07-24T16:29:56;35.10;51.20
6146;DHT22;3104;50.348;7.620;2022-07-24T16:32:22;34.90;50.80
6146;DHT22;3104;50.348;7.620;2022-07-24T16:34:48;34.80;50.00
6146;DHT22;3104;50.348;7.620;2022-07-24T16:37:13;35.20;50.20
6146;DHT22;3104;50.348;7.620;2022-07-24T16:39:39;35.50;50.40
6146;DHT22;3104;50.348;7.620;2022-07-24T16:42:05;34.90;52.10